createdAt,value
2023-05-20T00:03:37.297Z,3.30
2023-05-20T00:08:41.069Z,3.92
2023-05-20T00:13:44.437Z,3.33
2023-05-20T00:18:49.258Z,3.83
2023-05-20T00:23:52.868Z,3.33
2023-05-20T00:28:56.114Z,3.75
2023-05-20T00:34:01.592Z,4.15
2023-05-20T00:39:05.028Z,4.00
2023-05-20T00:44:08.271Z,4.22
2023-05-20T00:49:14.226Z,4.03
2023-05-20T00:54:17.946Z,3.97
2023-05-20T00:59:22.836Z,3.88
2023-05-20T01:04:28.438Z,3.80
2023-05-20T01:09:32.576Z,4.53
2023-05-20T01:14:41.589Z,4.55
2023-05-20T01:19:48.072Z,3.95
2023-05-20T01:24:53.769Z,3.95
2023-05-20T01:29:57.591Z,4.55
2023-05-20T01:35:02.071Z,4.38
2023-05-20T01:40:09.340Z,4.88
2023-05-20T01:45:12.844Z,4.35
2023-05-20T01:50:16.196Z,4.80
2023-05-20T01:55:20.992Z,4.90
2023-05-20T02:00:28.996Z,4.72
2023-05-20T02:05:33.523Z,4.97
2023-05-20T02:10:39.172Z,4.53
2023-05-20T02:15:43.190Z,5.13
2023-05-20T02:20:46.711Z,5.25
2023-05-20T02:25:51.957Z,5.32
2023-05-20T02:30:55.449Z,7.00
2023-05-20T02:35:59.004Z,6.05
2023-05-20T02:41:04.699Z,6.22
2023-05-20T02:46:08.065Z,7.15
2023-05-20T02:51:11.659Z,7.20
2023-05-20T02:56:16.421Z,8.13
2023-05-20T03:01:19.867Z,8.90
2023-05-20T03:06:23.184Z,8.00
2023-05-20T03:11:27.675Z,9.35
2023-05-20T03:16:31.049Z,8.68
2023-05-20T03:21:34.451Z,8.75
2023-05-20T03:26:43.543Z,9.35
2023-05-20T03:31:47.621Z,8.70
2023-05-20T03:36:52.747Z,8.32
2023-05-20T03:41:57.212Z,7.72
2023-05-20T03:47:00.461Z,7.93
2023-05-20T03:52:04.096Z,7.60
2023-05-20T03:57:10.650Z,7.18
2023-05-20T04:02:13.927Z,7.20
2023-05-20T04:07:17.144Z,6.97
2023-05-20T04:12:21.665Z,7.55
2023-05-20T04:17:24.977Z,7.45
2023-05-20T04:22:28.716Z,8.38
2023-05-20T04:27:34.870Z,8.32
2023-05-20T04:32:38.876Z,8.25
2023-05-20T04:37:44.681Z,9.05
2023-05-20T04:42:49.265Z,8.85
2023-05-20T04:47:53.521Z,8.63
2023-05-20T04:52:56.853Z,8.50
2023-05-20T04:58:01.545Z,8.82
2023-05-20T05:03:04.984Z,8.48
2023-05-20T05:08:08.412Z,8.25
2023-05-20T05:13:13.022Z,8.48
2023-05-20T05:18:19.235Z,7.68
2023-05-20T05:23:22.589Z,8.43
2023-05-20T05:28:27.530Z,8.23
2023-05-20T05:33:37.959Z,8.32
2023-05-20T05:38:41.423Z,8.93
2023-05-20T05:43:45.910Z,10.00
2023-05-20T05:48:52.178Z,9.10
2023-05-20T05:53:55.953Z,8.93
2023-05-20T05:59:00.895Z,9.82
2023-05-20T06:04:04.466Z,9.55
2023-05-20T06:09:10.809Z,9.02
2023-05-20T06:14:18.187Z,9.73
2023-05-20T06:19:25.572Z,9.13
2023-05-20T06:24:31.249Z,10.18
2023-05-20T06:29:35.923Z,9.25
2023-05-20T06:34:39.130Z,10.50
2023-05-20T06:39:42.984Z,9.38
2023-05-20T06:44:47.760Z,10.07
2023-05-20T06:49:50.999Z,10.00
2023-05-20T06:54:54.724Z,9.90
2023-05-20T06:59:59.381Z,9.38
2023-05-20T07:05:02.991Z,10.55
2023-05-20T07:10:07.960Z,10.75
2023-05-20T07:15:13.130Z,10.70
2023-05-20T07:20:16.580Z,11.73
2023-05-20T07:25:19.856Z,11.88
2023-05-20T07:30:24.987Z,12.32
2023-05-20T07:35:28.300Z,12.00
2023-05-20T07:40:31.552Z,12.23
2023-05-20T07:45:36.702Z,11.40
2023-05-20T07:50:40.444Z,11.80
2023-05-20T07:55:43.594Z,12.35
2023-05-20T08:00:48.237Z,11.10
2023-05-20T08:05:51.454Z,12.18
2023-05-20T08:10:54.772Z,11.38
2023-05-20T08:15:59.494Z,13.20
2023-05-20T08:21:02.732Z,11.68
2023-05-20T08:26:05.999Z,11.75
2023-05-20T08:31:10.884Z,12.13
2023-05-20T08:36:14.117Z,11.55
2023-05-20T08:41:17.332Z,10.48
2023-05-20T08:46:24.358Z,10.65
2023-05-20T08:51:32.366Z,10.93
2023-05-20T08:56:35.710Z,10.93
2023-05-20T09:01:44.318Z,11.30
2023-05-20T09:06:48.531Z,11.27
2023-05-20T09:11:51.647Z,12.38
2023-05-20T09:16:57.124Z,12.90
2023-05-20T09:22:00.463Z,12.73
2023-05-20T09:27:03.664Z,13.55
2023-05-20T09:32:09.187Z,12.90
2023-05-20T09:37:13.325Z,12.95
2023-05-20T09:42:22.292Z,13.65
2023-05-20T09:47:28.209Z,13.05
2023-05-20T09:52:32.374Z,13.95
2023-05-20T09:57:36.490Z,12.52
2023-05-20T10:02:44.231Z,12.80
2023-05-20T10:08:19.405Z,11.77
2023-05-20T10:13:45.125Z,12.88
2023-05-20T10:18:58.100Z,11.73
2023-05-20T10:24:08.329Z,11.20
2023-05-20T10:29:22.928Z,11.55
2023-05-20T10:34:27.988Z,10.90
2023-05-20T10:39:34.214Z,11.80
2023-05-20T10:44:44.695Z,11.13
2023-05-20T10:49:49.539Z,11.68
2023-05-20T10:54:57.778Z,10.88
2023-05-20T11:00:02.132Z,10.95
2023-05-20T11:05:15.455Z,10.52
2023-05-20T11:10:18.754Z,10.88
2023-05-20T11:15:26.636Z,9.20
2023-05-20T11:20:35.482Z,9.90
2023-05-20T11:25:45.695Z,10.35
2023-05-20T11:30:49.574Z,9.70
2023-05-20T11:35:58.266Z,10.13
2023-05-20T11:41:01.502Z,9.27
2023-05-20T11:46:06.554Z,9.38
2023-05-20T11:51:11.931Z,10.10
2023-05-20T11:56:16.040Z,10.30
2023-05-20T12:01:23.068Z,10.25
2023-05-20T12:06:28.180Z,9.55
2023-05-20T12:11:32.930Z,9.55
2023-05-20T12:16:37.489Z,10.20
2023-05-20T12:21:42.247Z,10.00
2023-05-20T12:26:47.205Z,10.13
2023-05-20T12:31:50.724Z,10.02
2023-05-20T12:36:58.450Z,9.95
2023-05-20T12:42:01.792Z,10.35
2023-05-20T12:47:09.988Z,10.20
2023-05-20T12:52:22.286Z,10.07
2023-05-20T12:57:26.725Z,10.40
2023-05-20T13:02:30.629Z,11.00
2023-05-20T13:07:35.508Z,10.70
2023-05-20T13:12:39.015Z,11.32
2023-05-20T13:17:42.777Z,11.80
2023-05-20T13:22:48.150Z,11.52
2023-05-20T13:27:51.790Z,11.95
2023-05-20T13:32:55.634Z,12.30
2023-05-20T13:38:02.573Z,11.38
2023-05-20T13:43:06.342Z,11.40
2023-05-20T13:48:09.688Z,10.98
2023-05-20T13:53:14.559Z,10.25
2023-05-20T13:58:17.760Z,10.45
2023-05-20T14:03:23.906Z,10.23
2023-05-20T14:08:28.726Z,10.27
2023-05-20T14:13:35.560Z,10.68
2023-05-20T14:18:38.769Z,10.45
2023-05-20T14:23:47.761Z,10.38
2023-05-20T14:28:52.289Z,10.77
2023-05-20T14:33:55.550Z,9.90
2023-05-20T14:39:00.783Z,9.30
2023-05-20T14:44:04.148Z,9.25
2023-05-20T14:49:07.300Z,8.80
2023-05-20T14:54:16.204Z,9.27
2023-05-20T14:59:19.474Z,9.10
2023-05-20T15:04:27.109Z,8.07
2023-05-20T15:09:32.213Z,7.85
2023-05-20T15:14:38.883Z,8.18
2023-05-20T15:19:42.464Z,7.75
2023-05-20T15:24:49.809Z,7.25
2023-05-20T15:29:52.973Z,7.30
2023-05-20T15:34:56.478Z,7.18
2023-05-20T15:40:01.500Z,7.25
2023-05-20T15:45:04.749Z,7.20
2023-05-20T15:50:12.162Z,7.78
2023-05-20T15:55:23.281Z,7.15
2023-05-20T16:00:27.440Z,7.75
2023-05-20T16:05:30.966Z,8.55
2023-05-20T16:10:38.300Z,8.57
2023-05-20T16:15:44.097Z,8.82
2023-05-20T16:20:47.417Z,8.55
2023-05-20T16:25:52.262Z,10.52
2023-05-20T16:30:55.732Z,8.77
2023-05-20T16:35:59.030Z,8.88
2023-05-20T16:41:08.110Z,9.32
2023-05-20T16:46:12.838Z,8.88
2023-05-20T16:51:19.671Z,9.52
2023-05-20T16:56:24.616Z,9.88
2023-05-20T17:01:30.975Z,9.43
2023-05-20T17:06:34.605Z,9.02
2023-05-20T17:11:39.209Z,9.80
2023-05-20T17:16:43.091Z,9.93
2023-05-20T17:21:47.004Z,9.57
2023-05-20T17:26:56.365Z,10.10
2023-05-20T17:31:59.742Z,9.68
2023-05-20T17:37:06.343Z,9.40
2023-05-20T17:42:13.658Z,9.88
2023-05-20T17:47:17.107Z,10.95
2023-05-20T17:52:24.842Z,11.00
2023-05-20T17:57:29.359Z,11.60
2023-05-20T18:02:35.077Z,11.50
2023-05-20T18:07:38.891Z,12.35
2023-05-20T18:12:45.515Z,12.40
2023-05-20T18:17:52.011Z,12.15
2023-05-20T18:23:01.477Z,12.77
2023-05-20T18:28:06.509Z,12.68
2023-05-20T18:33:12.491Z,11.98
2023-05-20T18:38:16.689Z,12.45
2023-05-20T18:43:27.470Z,12.63
2023-05-20T18:48:30.976Z,12.00
2023-05-20T18:53:40.809Z,12.25
2023-05-20T18:58:47.989Z,12.10
2023-05-20T19:03:52.741Z,12.32
2023-05-20T19:08:56.869Z,12.10
2023-05-20T19:14:02.054Z,11.55
2023-05-20T19:19:05.224Z,12.10
2023-05-20T19:24:19.648Z,12.63
2023-05-20T19:29:25.075Z,11.90
2023-05-20T19:34:29.831Z,12.13
2023-05-20T19:39:35.090Z,11.80
2023-05-20T19:44:40.770Z,12.18
2023-05-20T19:49:52.666Z,12.40
2023-05-20T19:54:56.988Z,12.63
2023-05-20T20:00:03.770Z,13.15
2023-05-20T20:05:09.091Z,13.40
2023-05-20T20:10:14.822Z,12.95
2023-05-20T20:15:20.569Z,12.43
2023-05-20T20:20:24.905Z,13.73
2023-05-20T20:25:28.317Z,12.90
2023-05-20T20:30:33.086Z,13.93
2023-05-20T20:35:37.044Z,14.02
2023-05-20T20:40:42.766Z,14.45
2023-05-20T20:45:47.761Z,14.02
2023-05-20T20:50:51.410Z,14.52
2023-05-20T20:55:57.055Z,14.20
2023-05-20T21:01:03.446Z,14.73
2023-05-20T21:06:07.364Z,15.63
2023-05-20T21:11:10.636Z,14.57
2023-05-20T21:16:15.392Z,17.67
2023-05-20T21:21:21.587Z,21.35
2023-05-20T21:26:25.568Z,20.77
2023-05-20T21:31:30.271Z,18.17
2023-05-20T21:36:33.669Z,17.23
2023-05-20T21:41:36.857Z,16.92
2023-05-20T21:46:42.443Z,18.15
2023-05-20T21:51:45.774Z,17.27
2023-05-20T21:56:48.959Z,16.60
2023-05-20T22:01:53.638Z,15.90
2023-05-20T22:06:57.356Z,16.25
2023-05-20T22:12:01.332Z,15.82
2023-05-20T22:17:06.196Z,15.70
2023-05-20T22:22:09.511Z,15.30
2023-05-20T22:27:12.826Z,14.60
2023-05-20T22:32:17.658Z,14.48
2023-05-20T22:37:21.191Z,14.73
2023-05-20T22:42:24.585Z,13.52
2023-05-20T22:47:29.198Z,13.82
2023-05-20T22:52:32.718Z,13.68
2023-05-20T22:57:37.008Z,13.55
2023-05-20T23:02:42.320Z,14.13
2023-05-20T23:07:46.171Z,14.82
2023-05-20T23:12:49.253Z,14.40
2023-05-20T23:17:53.766Z,14.18
2023-05-20T23:22:57.075Z,13.18
2023-05-20T23:28:00.232Z,14.05
2023-05-20T23:33:05.309Z,14.13
2023-05-20T23:38:08.832Z,13.85
2023-05-20T23:43:12.047Z,15.27
2023-05-20T23:48:18.006Z,14.90
2023-05-20T23:53:21.500Z,14.00
2023-05-20T23:58:24.782Z,15.38
